ANA746 RJCH-RJOO
Flight info
| Callsign | ANA746 |
|---|---|
| Flight time | N/A |
| Altitude | 36000 |
| Route | TAPPI Y12 ARIKA Y14 GOLDO Y381 KMC Y384 ROKKO KAMEO OTABE ABENO IKOMA |
| Aircraft | A321/M-SDE3FGHIRWY/LB1 |
Departure
| Time | 2026-04-19 18:52 |
|---|---|
| Airport | Hakodate Airport (RJCH) |
Arrival
| Time | N/A |
|---|---|
| Airport | Osaka Itami International Airport (RJOO) |
| Time | Latitude | Longitude | Altitude | Speed | Heading |
|---|---|---|---|---|---|
| 2026-04-19 18:35 | 41.77403 | 140.81868 | 121 ft | 0 kts | 18° |
| 2026-04-19 18:43 | 41.77391 | 140.81863 | 121 ft | 2 kts | 18° |
| 2026-04-19 18:43 | 41.77377 | 140.81857 | 121 ft | 2 kts | 18° |
| 2026-04-19 18:43 | 41.77363 | 140.81851 | 121 ft | 2 kts | 18° |
| 2026-04-19 18:44 | 41.77348 | 140.81845 | 121 ft | 2 kts | 18° |
| 2026-04-19 18:44 | 41.77339 | 140.81841 | 121 ft | 1 kts | 18° |
| 2026-04-19 18:44 | 41.77325 | 140.81836 | 121 ft | 2 kts | 1° |
| 2026-04-19 18:44 | 41.77310 | 140.81838 | 120 ft | 2 kts | 348° |
| 2026-04-19 18:45 | 41.77296 | 140.81844 | 119 ft | 2 kts | 332° |
| 2026-04-19 18:45 | 41.77284 | 140.81856 | 119 ft | 2 kts | 317° |
| 2026-04-19 18:45 | 41.77274 | 140.81869 | 119 ft | 2 kts | 303° |
| 2026-04-19 18:45 | 41.77267 | 140.81885 | 118 ft | 0 kts | 290° |
| 2026-04-19 18:46 | 41.77266 | 140.81894 | 118 ft | 1 kts | 287° |
| 2026-04-19 18:46 | 41.77265 | 140.81895 | 118 ft | 0 kts | 287° |
| 2026-04-19 18:48 | 41.77266 | 140.81892 | 118 ft | 1 kts | 288° |
| 2026-04-19 18:48 | 41.77274 | 140.81856 | 119 ft | 6 kts | 288° |
| 2026-04-19 18:48 | 41.77294 | 140.81776 | 118 ft | 12 kts | 289° |
| 2026-04-19 18:49 | 41.77324 | 140.81654 | 117 ft | 15 kts | 288° |
| 2026-04-19 18:49 | 41.77361 | 140.81508 | 115 ft | 17 kts | 289° |
| 2026-04-19 18:49 | 41.77401 | 140.81343 | 111 ft | 19 kts | 288° |
| 2026-04-19 18:49 | 41.77444 | 140.81160 | 107 ft | 21 kts | 288° |
| 2026-04-19 18:50 | 41.77490 | 140.80975 | 107 ft | 20 kts | 288° |
| 2026-04-19 18:50 | 41.77534 | 140.80792 | 104 ft | 21 kts | 288° |
| 2026-04-19 18:50 | 41.77556 | 140.80618 | 102 ft | 9 kts | 271° |
| 2026-04-19 18:50 | 41.77523 | 140.80545 | 100 ft | 11 kts | 209° |
| 2026-04-19 18:51 | 41.77441 | 140.80516 | 97 ft | 12 kts | 155° |
| 2026-04-19 18:51 | 41.77400 | 140.80632 | 99 ft | 20 kts | 108° |
| 2026-04-19 18:51 | 41.77281 | 140.81130 | 104 ft | 91 kts | 107° |
| 2026-04-19 18:52 | 41.76635 | 140.83730 | 282 ft | 183 kts | 107° |
| 2026-04-19 18:52 | 41.76206 | 140.85321 | 901 ft | 182 kts | 118° |
| 2026-04-19 18:52 | 41.75299 | 140.86346 | 1565 ft | 172 kts | 167° |
| 2026-04-19 18:52 | 41.74194 | 140.86235 | 1995 ft | 158 kts | 221° |
| 2026-04-19 18:53 | 41.73408 | 140.85255 | 2274 ft | 160 kts | 232° |
| 2026-04-19 18:53 | 41.72633 | 140.84109 | 2539 ft | 172 kts | 234° |
| 2026-04-19 18:53 | 41.71796 | 140.82873 | 2818 ft | 186 kts | 232° |
| 2026-04-19 18:53 | 41.70861 | 140.81610 | 3103 ft | 201 kts | 229° |
| 2026-04-19 18:54 | 41.69802 | 140.80272 | 3350 ft | 220 kts | 227° |
| 2026-04-19 18:54 | 41.68614 | 140.78839 | 3756 ft | 235 kts | 226° |
| 2026-04-19 18:54 | 41.67340 | 140.77347 | 4174 ft | 249 kts | 226° |
| 2026-04-19 18:54 | 41.65988 | 140.75786 | 4616 ft | 263 kts | 226° |
| 2026-04-19 18:55 | 41.64591 | 140.74188 | 5332 ft | 268 kts | 226° |
| 2026-04-19 18:55 | 41.63172 | 140.72575 | 6051 ft | 271 kts | 226° |
| 2026-04-19 18:55 | 41.61740 | 140.70949 | 6750 ft | 275 kts | 227° |
| 2026-04-19 18:55 | 41.60274 | 140.69284 | 7490 ft | 278 kts | 227° |
| 2026-04-19 18:56 | 41.58799 | 140.67613 | 8199 ft | 280 kts | 228° |
| 2026-04-19 18:56 | 41.57313 | 140.65930 | 8926 ft | 282 kts | 228° |
| 2026-04-19 18:56 | 41.55819 | 140.64238 | 9593 ft | 284 kts | 229° |
| 2026-04-19 18:56 | 41.54317 | 140.62537 | 10306 ft | 286 kts | 229° |
| 2026-04-19 18:57 | 41.52794 | 140.60800 | 10727 ft | 298 kts | 229° |
| 2026-04-19 18:57 | 41.51168 | 140.58943 | 11039 ft | 314 kts | 228° |
| 2026-04-19 18:57 | 41.49470 | 140.57013 | 11423 ft | 326 kts | 228° |
| 2026-04-19 18:57 | 41.47734 | 140.55054 | 12021 ft | 330 kts | 228° |
| 2026-04-19 18:58 | 41.45976 | 140.53076 | 12674 ft | 331 kts | 228° |
| 2026-04-19 18:58 | 41.44234 | 140.51119 | 13280 ft | 333 kts | 228° |
| 2026-04-19 18:58 | 41.42466 | 140.49129 | 13868 ft | 336 kts | 228° |
| 2026-04-19 18:58 | 41.40676 | 140.47113 | 14465 ft | 338 kts | 228° |
| 2026-04-19 18:59 | 41.38879 | 140.45091 | 15040 ft | 340 kts | 227° |
| 2026-04-19 18:59 | 41.37082 | 140.43069 | 15603 ft | 342 kts | 227° |
| 2026-04-19 18:59 | 41.35257 | 140.41019 | 16152 ft | 344 kts | 227° |
| 2026-04-19 18:59 | 41.33421 | 140.38959 | 16680 ft | 347 kts | 227° |
| 2026-04-19 19:00 | 41.31582 | 140.36897 | 17196 ft | 349 kts | 227° |
| 2026-04-19 19:00 | 41.29711 | 140.34799 | 17706 ft | 351 kts | 226° |
| 2026-04-19 19:00 | 41.27853 | 140.32709 | 18196 ft | 354 kts | 226° |
| 2026-04-19 19:00 | 41.25974 | 140.30595 | 18679 ft | 356 kts | 226° |
| 2026-04-19 19:01 | 41.24099 | 140.28494 | 19155 ft | 359 kts | 226° |
| 2026-04-19 19:01 | 41.22175 | 140.26346 | 19647 ft | 361 kts | 226° |
| 2026-04-19 19:01 | 41.20260 | 140.24208 | 20110 ft | 363 kts | 226° |
| 2026-04-19 19:01 | 41.18312 | 140.22032 | 20558 ft | 366 kts | 225° |
| 2026-04-19 19:02 | 41.16368 | 140.19869 | 21019 ft | 368 kts | 225° |
| 2026-04-19 19:02 | 41.14317 | 140.17819 | 21440 ft | 375 kts | 218° |
| 2026-04-19 19:02 | 41.11987 | 140.16168 | 21869 ft | 384 kts | 208° |
| 2026-04-19 19:02 | 41.09428 | 140.15027 | 22312 ft | 391 kts | 201° |
| 2026-04-19 19:03 | 41.06811 | 140.14090 | 22746 ft | 393 kts | 200° |
| 2026-04-19 19:03 | 41.04152 | 140.13178 | 23152 ft | 396 kts | 200° |
| 2026-04-19 19:03 | 41.01471 | 140.12264 | 23550 ft | 399 kts | 200° |
| 2026-04-19 19:03 | 40.98793 | 140.11348 | 23956 ft | 401 kts | 200° |
| 2026-04-19 19:04 | 40.96084 | 140.10419 | 24369 ft | 403 kts | 200° |
| 2026-04-19 19:04 | 40.93385 | 140.09491 | 24784 ft | 405 kts | 200° |
| 2026-04-19 19:04 | 40.90664 | 140.08556 | 25189 ft | 406 kts | 200° |
| 2026-04-19 19:04 | 40.87899 | 140.07608 | 25568 ft | 409 kts | 200° |
| 2026-04-19 19:05 | 40.85143 | 140.06665 | 25933 ft | 411 kts | 200° |
| 2026-04-19 19:05 | 40.82370 | 140.05718 | 26299 ft | 413 kts | 200° |
| 2026-04-19 19:05 | 40.79621 | 140.04776 | 26646 ft | 415 kts | 201° |
| 2026-04-19 19:05 | 40.76807 | 140.03812 | 26985 ft | 417 kts | 201° |
| 2026-04-19 19:06 | 40.73987 | 140.02844 | 27354 ft | 418 kts | 200° |
| 2026-04-19 19:06 | 40.71196 | 140.01888 | 27700 ft | 420 kts | 201° |
| 2026-04-19 19:06 | 40.68334 | 140.00909 | 28009 ft | 422 kts | 201° |
| 2026-04-19 19:06 | 40.65509 | 139.99942 | 28326 ft | 424 kts | 201° |
| 2026-04-19 19:07 | 40.62620 | 139.98956 | 28641 ft | 426 kts | 201° |
| 2026-04-19 19:07 | 40.59749 | 139.97975 | 28952 ft | 428 kts | 201° |
| 2026-04-19 19:07 | 40.56897 | 139.97003 | 29246 ft | 430 kts | 201° |
| 2026-04-19 19:07 | 40.53995 | 139.96014 | 29530 ft | 432 kts | 201° |
| 2026-04-19 19:08 | 40.51060 | 139.95015 | 29803 ft | 434 kts | 201° |
| 2026-04-19 19:08 | 40.48157 | 139.93968 | 30085 ft | 433 kts | 203° |
| 2026-04-19 19:08 | 40.45332 | 139.92743 | 30350 ft | 432 kts | 206° |
| 2026-04-19 19:08 | 40.42518 | 139.91289 | 30612 ft | 431 kts | 210° |
| 2026-04-19 19:09 | 40.39834 | 139.89671 | 30873 ft | 429 kts | 213° |
| 2026-04-19 19:09 | 40.37154 | 139.87874 | 31209 ft | 427 kts | 213° |
| 2026-04-19 19:09 | 40.34549 | 139.86119 | 31585 ft | 425 kts | 213° |
| 2026-04-19 19:09 | 40.31902 | 139.84338 | 31942 ft | 423 kts | 213° |
| 2026-04-19 19:10 | 40.29314 | 139.82600 | 32329 ft | 420 kts | 213° |
| 2026-04-19 19:10 | 40.26720 | 139.80858 | 32719 ft | 417 kts | 214° |
| 2026-04-19 19:10 | 40.24150 | 139.79138 | 33077 ft | 415 kts | 214° |
| 2026-04-19 19:10 | 40.21609 | 139.77432 | 33408 ft | 413 kts | 214° |
| 2026-04-19 19:11 | 40.19059 | 139.75722 | 33733 ft | 411 kts | 214° |
| 2026-04-19 19:11 | 40.16529 | 139.74028 | 34040 ft | 409 kts | 214° |
| 2026-04-19 19:11 | 40.14011 | 139.72345 | 34317 ft | 407 kts | 214° |
| 2026-04-19 19:11 | 40.11503 | 139.70668 | 34535 ft | 406 kts | 215° |
| 2026-04-19 19:12 | 40.08972 | 139.68977 | 34723 ft | 405 kts | 215° |
| 2026-04-19 19:12 | 40.06465 | 139.67305 | 34885 ft | 405 kts | 215° |
| 2026-04-19 19:12 | 40.03984 | 139.65655 | 35027 ft | 406 kts | 215° |
| 2026-04-19 19:12 | 40.01457 | 139.64000 | 35162 ft | 407 kts | 215° |
| 2026-04-19 19:13 | 39.98900 | 139.62334 | 35313 ft | 407 kts | 214° |
| 2026-04-19 19:13 | 39.96385 | 139.60700 | 35502 ft | 405 kts | 215° |
| 2026-04-19 19:13 | 39.93888 | 139.59079 | 35691 ft | 403 kts | 215° |
| 2026-04-19 19:13 | 39.91380 | 139.57452 | 35838 ft | 403 kts | 215° |
| 2026-04-19 19:14 | 39.88854 | 139.55815 | 35951 ft | 403 kts | 215° |
| 2026-04-19 19:14 | 39.86366 | 139.54210 | 36037 ft | 404 kts | 215° |
| 2026-04-19 19:14 | 39.81314 | 139.50955 | 36046 ft | 403 kts | 215° |
| 2026-04-19 19:15 | 39.76331 | 139.47742 | 36045 ft | 402 kts | 216° |
| 2026-04-19 19:15 | 39.71305 | 139.44499 | 36044 ft | 402 kts | 216° |
| 2026-04-19 19:16 | 39.66326 | 139.41290 | 36055 ft | 402 kts | 215° |
| 2026-04-19 19:16 | 39.61329 | 139.38074 | 36048 ft | 401 kts | 216° |
| 2026-04-19 19:17 | 39.56305 | 139.34845 | 36048 ft | 401 kts | 215° |
| 2026-04-19 19:17 | 39.51324 | 139.31627 | 36045 ft | 401 kts | 215° |
| 2026-04-19 19:18 | 39.46332 | 139.28413 | 36053 ft | 400 kts | 215° |
| 2026-04-19 19:18 | 39.41366 | 139.25230 | 36051 ft | 400 kts | 215° |
| 2026-04-19 19:19 | 39.36392 | 139.22052 | 36044 ft | 399 kts | 215° |
| 2026-04-19 19:20 | 39.28948 | 139.17308 | 36048 ft | 398 kts | 215° |
| 2026-04-19 19:20 | 39.24018 | 139.14171 | 36048 ft | 398 kts | 215° |
| 2026-04-19 19:21 | 39.19024 | 139.11000 | 36055 ft | 398 kts | 215° |
| 2026-04-19 19:21 | 39.14087 | 139.07871 | 36046 ft | 397 kts | 215° |
| 2026-04-19 19:22 | 39.09114 | 139.04723 | 36054 ft | 397 kts | 215° |
| 2026-04-19 19:22 | 39.04166 | 139.01598 | 36050 ft | 397 kts | 215° |
| 2026-04-19 19:23 | 38.99236 | 138.98486 | 36048 ft | 395 kts | 215° |
| 2026-04-19 19:23 | 38.94333 | 138.95399 | 36047 ft | 395 kts | 215° |
| 2026-04-19 19:24 | 38.89390 | 138.92291 | 36034 ft | 395 kts | 215° |
| 2026-04-19 19:24 | 38.84437 | 138.89203 | 36037 ft | 394 kts | 215° |
| 2026-04-19 19:25 | 38.79517 | 138.86131 | 36047 ft | 395 kts | 215° |
| 2026-04-19 19:25 | 38.74595 | 138.83057 | 36035 ft | 395 kts | 215° |
| 2026-04-19 19:26 | 38.69676 | 138.79984 | 36023 ft | 393 kts | 215° |
| 2026-04-19 19:26 | 38.64765 | 138.76918 | 36027 ft | 392 kts | 215° |
| 2026-04-19 19:27 | 38.59901 | 138.73888 | 36036 ft | 392 kts | 215° |
| 2026-04-19 19:27 | 38.54993 | 138.70833 | 36031 ft | 391 kts | 215° |
| 2026-04-19 19:28 | 38.50116 | 138.67806 | 36029 ft | 391 kts | 215° |
| 2026-04-19 19:28 | 38.45231 | 138.64774 | 36026 ft | 392 kts | 215° |
| 2026-04-19 19:29 | 38.40321 | 138.61734 | 36020 ft | 391 kts | 215° |
| 2026-04-19 19:29 | 38.35461 | 138.58727 | 36027 ft | 391 kts | 215° |
| 2026-04-19 19:30 | 38.30568 | 138.55708 | 36020 ft | 390 kts | 215° |
| 2026-04-19 19:30 | 38.25689 | 138.52699 | 36017 ft | 389 kts | 215° |
| 2026-04-19 19:31 | 38.20837 | 138.49713 | 36016 ft | 389 kts | 215° |
| 2026-04-19 19:31 | 38.15966 | 138.46718 | 36021 ft | 388 kts | 215° |
| 2026-04-19 19:32 | 38.11208 | 138.43564 | 36019 ft | 383 kts | 219° |
| 2026-04-19 19:32 | 38.06775 | 138.39931 | 36000 ft | 377 kts | 224° |
| 2026-04-19 19:33 | 38.02682 | 138.35861 | 36011 ft | 374 kts | 227° |
| 2026-04-19 19:33 | 37.98933 | 138.31403 | 36010 ft | 369 kts | 230° |
| 2026-04-19 19:34 | 37.95255 | 138.26865 | 36001 ft | 370 kts | 230° |
| 2026-04-19 19:34 | 37.91581 | 138.22333 | 36006 ft | 370 kts | 230° |
| 2026-04-19 19:35 | 37.87880 | 138.17786 | 35987 ft | 371 kts | 230° |
| 2026-04-19 19:35 | 37.84178 | 138.13268 | 35988 ft | 370 kts | 230° |
| 2026-04-19 19:36 | 37.80490 | 138.08746 | 35983 ft | 370 kts | 230° |
| 2026-04-19 19:36 | 37.76810 | 138.04233 | 36003 ft | 369 kts | 230° |
| 2026-04-19 19:37 | 37.73126 | 137.99727 | 35998 ft | 368 kts | 230° |
| 2026-04-19 19:37 | 37.69455 | 137.95235 | 35993 ft | 369 kts | 230° |
| 2026-04-19 19:38 | 37.65795 | 137.90758 | 35986 ft | 368 kts | 230° |
| 2026-04-19 19:38 | 37.62119 | 137.86270 | 36001 ft | 367 kts | 230° |
| 2026-04-19 19:39 | 37.61270 | 137.85239 | 36000 ft | 368 kts | 230° |
| 2026-04-19 19:56 | 37.58213 | 137.81511 | 36013 ft | 369 kts | 230° |
| 2026-04-19 19:57 | 37.54547 | 137.77046 | 36017 ft | 368 kts | 230° |
| 2026-04-19 19:57 | 37.50850 | 137.72553 | 35992 ft | 369 kts | 230° |
| 2026-04-19 19:58 | 37.47178 | 137.68100 | 35989 ft | 368 kts | 230° |
| 2026-04-19 19:58 | 37.43503 | 137.63641 | 35996 ft | 366 kts | 230° |
| 2026-04-19 19:59 | 37.39838 | 137.59207 | 36004 ft | 367 kts | 230° |
| 2026-04-19 19:59 | 37.36175 | 137.54779 | 36005 ft | 366 kts | 229° |
| 2026-04-19 20:00 | 37.32502 | 137.50348 | 35998 ft | 366 kts | 230° |
| 2026-04-19 20:00 | 37.28825 | 137.45917 | 35982 ft | 367 kts | 230° |
| 2026-04-19 20:01 | 37.25132 | 137.41470 | 35980 ft | 367 kts | 230° |
| 2026-04-19 20:01 | 37.21476 | 137.37082 | 35989 ft | 367 kts | 230° |
| 2026-04-19 20:02 | 37.17794 | 137.32649 | 35996 ft | 366 kts | 229° |
| 2026-04-19 20:02 | 37.14114 | 137.28223 | 35988 ft | 367 kts | 229° |
| 2026-04-19 20:03 | 37.10412 | 137.23784 | 35978 ft | 368 kts | 229° |
| 2026-04-19 20:03 | 37.06725 | 137.19369 | 35992 ft | 366 kts | 229° |
| 2026-04-19 20:04 | 37.03052 | 137.14989 | 35984 ft | 365 kts | 229° |
| 2026-04-19 20:04 | 36.99375 | 137.10612 | 35985 ft | 367 kts | 229° |
| 2026-04-19 20:05 | 36.95684 | 137.06221 | 35989 ft | 366 kts | 229° |
| 2026-04-19 20:05 | 36.91989 | 137.01834 | 35983 ft | 366 kts | 229° |
| 2026-04-19 20:06 | 36.88284 | 136.97453 | 36001 ft | 366 kts | 228° |
| 2026-04-19 20:06 | 36.84600 | 136.93124 | 35994 ft | 365 kts | 229° |
| 2026-04-19 20:07 | 36.80904 | 136.88757 | 35977 ft | 366 kts | 229° |
| 2026-04-19 20:07 | 36.77217 | 136.84412 | 35986 ft | 365 kts | 229° |
| 2026-04-19 20:08 | 36.73524 | 136.80060 | 35986 ft | 365 kts | 229° |
| 2026-04-19 20:08 | 36.69833 | 136.75717 | 35991 ft | 365 kts | 229° |
| 2026-04-19 20:09 | 36.66152 | 136.71394 | 35983 ft | 365 kts | 229° |
| 2026-04-19 20:09 | 36.62455 | 136.67047 | 35999 ft | 365 kts | 228° |
| 2026-04-19 20:10 | 36.58781 | 136.62743 | 35987 ft | 366 kts | 229° |
| 2026-04-19 20:10 | 36.55067 | 136.58386 | 35963 ft | 365 kts | 228° |
| 2026-04-19 20:10 | 36.53234 | 136.56250 | 35817 ft | 360 kts | 229° |
| 2026-04-19 20:11 | 36.51405 | 136.54120 | 35371 ft | 358 kts | 229° |
| 2026-04-19 20:11 | 36.49608 | 136.52014 | 34841 ft | 360 kts | 228° |
| 2026-04-19 20:11 | 36.47783 | 136.49883 | 34248 ft | 363 kts | 228° |
| 2026-04-19 20:11 | 36.45946 | 136.47734 | 33509 ft | 369 kts | 227° |
| 2026-04-19 20:12 | 36.44062 | 136.45535 | 32564 ft | 376 kts | 227° |
| 2026-04-19 20:12 | 36.42147 | 136.43311 | 31630 ft | 382 kts | 226° |
| 2026-04-19 20:12 | 36.40146 | 136.41133 | 30656 ft | 390 kts | 223° |
| 2026-04-19 20:12 | 36.38028 | 136.39046 | 29874 ft | 392 kts | 220° |
| 2026-04-19 20:13 | 36.35822 | 136.37070 | 29279 ft | 389 kts | 218° |
| 2026-04-19 20:13 | 36.33642 | 136.35155 | 28670 ft | 386 kts | 219° |
| 2026-04-19 20:13 | 36.31473 | 136.33240 | 28022 ft | 385 kts | 218° |
| 2026-04-19 20:13 | 36.29274 | 136.31290 | 27403 ft | 383 kts | 218° |
| 2026-04-19 20:14 | 36.27121 | 136.29385 | 26775 ft | 381 kts | 218° |
| 2026-04-19 20:14 | 36.24978 | 136.27498 | 26176 ft | 379 kts | 218° |
| 2026-04-19 20:14 | 36.22852 | 136.25633 | 25539 ft | 378 kts | 218° |
| 2026-04-19 20:14 | 36.20695 | 136.23747 | 24936 ft | 376 kts | 218° |
| 2026-04-19 20:15 | 36.18585 | 136.21899 | 24345 ft | 374 kts | 217° |
| 2026-04-19 20:15 | 36.16453 | 136.20036 | 23769 ft | 372 kts | 217° |
| 2026-04-19 20:15 | 36.14371 | 136.18218 | 23197 ft | 370 kts | 217° |
| 2026-04-19 20:15 | 36.12265 | 136.16379 | 22672 ft | 368 kts | 217° |
| 2026-04-19 20:16 | 36.10186 | 136.14560 | 22144 ft | 367 kts | 217° |
| 2026-04-19 20:16 | 36.08133 | 136.12762 | 21592 ft | 366 kts | 216° |
| 2026-04-19 20:16 | 36.06047 | 136.10942 | 21035 ft | 367 kts | 216° |
| 2026-04-19 20:16 | 36.03976 | 136.09137 | 20489 ft | 367 kts | 216° |
| 2026-04-19 20:17 | 36.01890 | 136.07321 | 19909 ft | 368 kts | 216° |
| 2026-04-19 20:17 | 35.99784 | 136.05487 | 19324 ft | 369 kts | 215° |
| 2026-04-19 20:17 | 35.97678 | 136.03654 | 18711 ft | 371 kts | 214° |
| 2026-04-19 20:17 | 35.95565 | 136.01822 | 18147 ft | 373 kts | 214° |
| 2026-04-19 20:18 | 35.93449 | 135.99988 | 17595 ft | 373 kts | 214° |
| 2026-04-19 20:18 | 35.91342 | 135.98163 | 17099 ft | 372 kts | 214° |
| 2026-04-19 20:18 | 35.89225 | 135.96332 | 16629 ft | 369 kts | 213° |
| 2026-04-19 20:18 | 35.87117 | 135.94519 | 16182 ft | 366 kts | 213° |
| 2026-04-19 20:19 | 35.85067 | 135.92758 | 15756 ft | 363 kts | 213° |
| 2026-04-19 20:19 | 35.82990 | 135.90968 | 15291 ft | 360 kts | 213° |
| 2026-04-19 20:19 | 35.80962 | 135.89221 | 14857 ft | 358 kts | 213° |
| 2026-04-19 20:19 | 35.78936 | 135.87474 | 14404 ft | 356 kts | 213° |
| 2026-04-19 20:20 | 35.76899 | 135.85716 | 13923 ft | 354 kts | 213° |
| 2026-04-19 20:20 | 35.74902 | 135.83995 | 13478 ft | 351 kts | 213° |
| 2026-04-19 20:20 | 35.72899 | 135.82268 | 13043 ft | 348 kts | 213° |
| 2026-04-19 20:20 | 35.70919 | 135.80560 | 12599 ft | 346 kts | 213° |
| 2026-04-19 20:21 | 35.68972 | 135.78883 | 12154 ft | 343 kts | 213° |
| 2026-04-19 20:21 | 35.67025 | 135.77210 | 11716 ft | 340 kts | 213° |
| 2026-04-19 20:21 | 35.65102 | 135.75555 | 11278 ft | 337 kts | 213° |
| 2026-04-19 20:21 | 35.63184 | 135.73908 | 10840 ft | 334 kts | 212° |
| 2026-04-19 20:22 | 35.61289 | 135.72281 | 10476 ft | 329 kts | 212° |
| 2026-04-19 20:22 | 35.59457 | 135.70705 | 10260 ft | 318 kts | 212° |
| 2026-04-19 20:22 | 35.57665 | 135.69163 | 10065 ft | 307 kts | 212° |
| 2026-04-19 20:22 | 35.55951 | 135.67694 | 9886 ft | 297 kts | 212° |
| 2026-04-19 20:23 | 35.54277 | 135.66260 | 9650 ft | 291 kts | 212° |
| 2026-04-19 20:23 | 35.52622 | 135.64845 | 9280 ft | 289 kts | 212° |
| 2026-04-19 20:23 | 35.50983 | 135.63444 | 8914 ft | 287 kts | 212° |
| 2026-04-19 20:23 | 35.49359 | 135.62056 | 8568 ft | 284 kts | 212° |
| 2026-04-19 20:24 | 35.47740 | 135.60672 | 8213 ft | 282 kts | 212° |
| 2026-04-19 20:24 | 35.46134 | 135.59300 | 7862 ft | 280 kts | 212° |
| 2026-04-19 20:24 | 35.44549 | 135.57948 | 7516 ft | 278 kts | 212° |
| 2026-04-19 20:24 | 35.42972 | 135.56601 | 7168 ft | 276 kts | 212° |
| 2026-04-19 20:25 | 35.41398 | 135.55258 | 6985 ft | 273 kts | 213° |
| 2026-04-19 20:25 | 35.39833 | 135.53923 | 6981 ft | 275 kts | 213° |
| 2026-04-19 20:25 | 35.38268 | 135.52597 | 6980 ft | 274 kts | 210° |
| 2026-04-19 20:25 | 35.36514 | 135.51810 | 6961 ft | 267 kts | 180° |
| 2026-04-19 20:26 | 35.34717 | 135.52239 | 6991 ft | 266 kts | 160° |
| 2026-04-19 20:26 | 35.32940 | 135.52977 | 6982 ft | 266 kts | 161° |
| 2026-04-19 20:26 | 35.31176 | 135.53665 | 6987 ft | 267 kts | 162° |
| 2026-04-19 20:26 | 35.29400 | 135.54324 | 6982 ft | 267 kts | 162° |
| 2026-04-19 20:27 | 35.27622 | 135.54965 | 6987 ft | 267 kts | 162° |
| 2026-04-19 20:27 | 35.25840 | 135.55594 | 6990 ft | 266 kts | 163° |
| 2026-04-19 20:27 | 35.24059 | 135.56218 | 6994 ft | 266 kts | 163° |
| 2026-04-19 20:27 | 35.22261 | 135.56841 | 6994 ft | 266 kts | 163° |
| 2026-04-19 20:28 | 35.20497 | 135.57449 | 6993 ft | 266 kts | 163° |
| 2026-04-19 20:28 | 35.18715 | 135.58064 | 6989 ft | 266 kts | 163° |
| 2026-04-19 20:28 | 35.16913 | 135.58682 | 6985 ft | 266 kts | 163° |
| 2026-04-19 20:28 | 35.15140 | 135.59291 | 6984 ft | 266 kts | 163° |
| 2026-04-19 20:29 | 35.13346 | 135.59906 | 6984 ft | 266 kts | 163° |
| 2026-04-19 20:29 | 35.11564 | 135.60516 | 6979 ft | 266 kts | 163° |
| 2026-04-19 20:29 | 35.09786 | 135.61125 | 6977 ft | 267 kts | 163° |
| 2026-04-19 20:30 | 35.06182 | 135.62358 | 6971 ft | 267 kts | 163° |
| 2026-04-19 20:30 | 35.04397 | 135.62967 | 6969 ft | 267 kts | 163° |
| 2026-04-19 20:30 | 35.02600 | 135.63580 | 6970 ft | 267 kts | 163° |
| 2026-04-19 20:30 | 35.00826 | 135.64186 | 6968 ft | 266 kts | 163° |
| 2026-04-19 20:31 | 34.99038 | 135.64796 | 6969 ft | 266 kts | 163° |
| 2026-04-19 20:31 | 34.97258 | 135.65405 | 6968 ft | 267 kts | 163° |
| 2026-04-19 20:31 | 34.95469 | 135.66014 | 6965 ft | 267 kts | 163° |
| 2026-04-19 20:31 | 34.93707 | 135.66614 | 6970 ft | 266 kts | 163° |
| 2026-04-19 20:32 | 34.91943 | 135.67213 | 6971 ft | 266 kts | 162° |
| 2026-04-19 20:32 | 34.90171 | 135.67818 | 6971 ft | 266 kts | 162° |
| 2026-04-19 20:32 | 34.88436 | 135.68405 | 6909 ft | 265 kts | 163° |
| 2026-04-19 20:32 | 34.86692 | 135.68996 | 6590 ft | 263 kts | 163° |
| 2026-04-19 20:33 | 34.84977 | 135.69577 | 6186 ft | 264 kts | 163° |
| 2026-04-19 20:33 | 34.83417 | 135.70105 | 5856 ft | 263 kts | 163° |